Terminal Aerodrome Forecast
Issued by NWS

Home | Current Version | Previous Version | Text Only | Print | Product List | Glossary On
Versions: 1 2 3 4 5 6 7 8 9 10 11 12
809
FTUS45 KFGZ 211143
TAFPGA
TAF
KPGA 211143Z 2112/2212 16010KT P6SM SKC
     FM211500 18016G24KT P6SM FEW200
     FM211800 21024G33KT P6SM SCT200
     FM220400 20017G25KT P6SM FEW200=

USA.gov is the U.S. government's official web portal to all federal, state and local government web resources and services.